sensor_id;sensor_type;location;lat;lon;timestamp;P1;durP1;ratioP1;P2;durP2;ratioP2
64615;SDS011;51027;42.162;24.754;2024-02-16T04:34:02;15.07;;;5.47;;
64615;SDS011;51027;42.162;24.754;2024-02-16T04:36:28;12.35;;;4.35;;
64615;SDS011;51027;42.162;24.754;2024-02-16T04:38:54;14.32;;;5.13;;
64615;SDS011;51027;42.162;24.754;2024-02-16T04:41:19;17.30;;;5.28;;
64615;SDS011;51027;42.162;24.754;2024-02-16T04:43:45;14.93;;;4.65;;
64615;SDS011;51027;42.162;24.754;2024-02-16T04:46:14;13.88;;;5.30;;
64615;SDS011;51027;42.162;24.754;2024-02-16T04:48:40;12.85;;;4.35;;
64615;SDS011;51027;42.162;24.754;2024-02-16T04:51:06;10.77;;;4.25;;
64615;SDS011;51027;42.162;24.754;2024-02-16T04:53:31;14.70;;;4.93;;
64615;SDS011;51027;42.162;24.754;2024-02-16T04:55:57;17.48;;;6.13;;
64615;SDS011;51027;42.162;24.754;2024-02-16T04:58:22;15.38;;;5.95;;
64615;SDS011;51027;42.162;24.754;2024-02-16T05:00:47;14.98;;;5.80;;
64615;SDS011;51027;42.162;24.754;2024-02-16T05:03:13;14.10;;;5.68;;
64615;SDS011;51027;42.162;24.754;2024-02-16T05:05:38;15.80;;;5.35;;
64615;SDS011;51027;42.162;24.754;2024-02-16T05:08:04;13.25;;;4.57;;
64615;SDS011;51027;42.162;24.754;2024-02-16T05:10:30;14.15;;;5.10;;
64615;SDS011;51027;42.162;24.754;2024-02-16T05:12:56;12.80;;;5.05;;
64615;SDS011;51027;42.162;24.754;2024-02-16T05:15:23;15.63;;;5.70;;
64615;SDS011;51027;42.162;24.754;2024-02-16T05:17:48;15.57;;;4.85;;
64615;SDS011;51027;42.162;24.754;2024-02-16T05:20:14;10.75;;;4.25;;
64615;SDS011;51027;42.162;24.754;2024-02-16T05:22:44;17.25;;;5.22;;
64615;SDS011;51027;42.162;24.754;2024-02-16T05:25:11;14.90;;;4.70;;
64615;SDS011;51027;42.162;24.754;2024-02-16T05:27:37;14.50;;;5.03;;
64615;SDS011;51027;42.162;24.754;2024-02-16T05:30:06;13.93;;;4.75;;
64615;SDS011;51027;42.162;24.754;2024-02-16T05:32:35;16.15;;;4.90;;
64615;SDS011;51027;42.162;24.754;2024-02-16T05:35:01;12.00;;;4.65;;
64615;SDS011;51027;42.162;24.754;2024-02-16T05:37:29;13.57;;;4.95;;
64615;SDS011;51027;42.162;24.754;2024-02-16T05:39:57;15.45;;;5.63;;
64615;SDS011;51027;42.162;24.754;2024-02-16T05:42:33;11.88;;;4.88;;
64615;SDS011;51027;42.162;24.754;2024-02-16T05:44:58;12.77;;;5.20;;
64615;SDS011;51027;42.162;24.754;2024-02-16T05:47:24;15.32;;;5.13;;
64615;SDS011;51027;42.162;24.754;2024-02-16T05:49:49;14.98;;;5.35;;
64615;SDS011;51027;42.162;24.754;2024-02-16T05:52:15;16.50;;;5.70;;
64615;SDS011;51027;42.162;24.754;2024-02-16T05:54:46;17.27;;;6.25;;
64615;SDS011;51027;42.162;24.754;2024-02-16T05:57:15;17.05;;;6.20;;
64615;SDS011;51027;42.162;24.754;2024-02-16T05:59:41;13.43;;;5.15;;
64615;SDS011;51027;42.162;24.754;2024-02-16T06:02:07;15.52;;;6.13;;
64615;SDS011;51027;42.162;24.754;2024-02-16T06:04:33;17.23;;;6.60;;
64615;SDS011;51027;42.162;24.754;2024-02-16T06:06:58;19.17;;;5.50;;
64615;SDS011;51027;42.162;24.754;2024-02-16T06:09:24;16.58;;;6.53;;
64615;SDS011;51027;42.162;24.754;2024-02-16T06:11:51;18.23;;;5.65;;
64615;SDS011;51027;42.162;24.754;2024-02-16T06:14:16;11.77;;;4.93;;
64615;SDS011;51027;42.162;24.754;2024-02-16T06:16:42;13.73;;;5.50;;
64615;SDS011;51027;42.162;24.754;2024-02-16T06:19:08;16.92;;;5.72;;
64615;SDS011;51027;42.162;24.754;2024-02-16T06:21:34;14.90;;;5.07;;
64615;SDS011;51027;42.162;24.754;2024-02-16T06:24:00;15.63;;;5.55;;
64615;SDS011;51027;42.162;24.754;2024-02-16T06:26:25;11.43;;;4.28;;
64615;SDS011;51027;42.162;24.754;2024-02-16T06:28:51;16.38;;;5.63;;
64615;SDS011;51027;42.162;24.754;2024-02-16T06:31:16;15.55;;;5.30;;
64615;SDS011;51027;42.162;24.754;2024-02-16T06:33:42;16.85;;;5.90;;
64615;SDS011;51027;42.162;24.754;2024-02-16T06:36:07;15.10;;;5.75;;
64615;SDS011;51027;42.162;24.754;2024-02-16T06:38:34;13.00;;;5.18;;
64615;SDS011;51027;42.162;24.754;2024-02-16T06:40:59;15.02;;;5.70;;
64615;SDS011;51027;42.162;24.754;2024-02-16T06:43:25;15.30;;;5.18;;
64615;SDS011;51027;42.162;24.754;2024-02-16T06:45:50;13.23;;;4.80;;
64615;SDS011;51027;42.162;24.754;2024-02-16T06:48:16;19.05;;;5.90;;
64615;SDS011;51027;42.162;24.754;2024-02-16T06:50:41;13.98;;;5.47;;
64615;SDS011;51027;42.162;24.754;2024-02-16T06:53:07;17.10;;;6.57;;
64615;SDS011;51027;42.162;24.754;2024-02-16T06:55:32;18.08;;;6.47;;
64615;SDS011;51027;42.162;24.754;2024-02-16T06:57:57;17.15;;;5.97;;
64615;SDS011;51027;42.162;24.754;2024-02-16T07:00:23;16.60;;;6.13;;
64615;SDS011;51027;42.162;24.754;2024-02-16T07:02:48;16.50;;;5.68;;
64615;SDS011;51027;42.162;24.754;2024-02-16T07:05:14;18.70;;;5.82;;
64615;SDS011;51027;42.162;24.754;2024-02-16T07:07:40;15.45;;;6.10;;
64615;SDS011;51027;42.162;24.754;2024-02-16T07:10:06;16.58;;;5.72;;
64615;SDS011;51027;42.162;24.754;2024-02-16T07:12:32;17.30;;;5.60;;
64615;SDS011;51027;42.162;24.754;2024-02-16T07:14:58;16.33;;;5.72;;
64615;SDS011;51027;42.162;24.754;2024-02-16T07:17:24;13.82;;;5.43;;
64615;SDS011;51027;42.162;24.754;2024-02-16T07:19:49;11.55;;;4.85;;
64615;SDS011;51027;42.162;24.754;2024-02-16T07:22:15;13.48;;;4.82;;
64615;SDS011;51027;42.162;24.754;2024-02-16T07:24:41;16.30;;;6.18;;
64615;SDS011;51027;42.162;24.754;2024-02-16T07:27:06;14.25;;;4.70;;
64615;SDS011;51027;42.162;24.754;2024-02-16T07:29:32;16.35;;;5.75;;
64615;SDS011;51027;42.162;24.754;2024-02-16T07:31:57;16.05;;;5.72;;
64615;SDS011;51027;42.162;24.754;2024-02-16T07:34:23;15.60;;;5.50;;
64615;SDS011;51027;42.162;24.754;2024-02-16T07:36:48;15.15;;;5.50;;
64615;SDS011;51027;42.162;24.754;2024-02-16T07:39:14;14.38;;;5.93;;
64615;SDS011;51027;42.162;24.754;2024-02-16T07:41:40;16.25;;;5.85;;
64615;SDS011;51027;42.162;24.754;2024-02-16T07:44:05;16.10;;;5.90;;
64615;SDS011;51027;42.162;24.754;2024-02-16T07:46:31;15.63;;;5.95;;
64615;SDS011;51027;42.162;24.754;2024-02-16T07:48:56;17.55;;;6.93;;
64615;SDS011;51027;42.162;24.754;2024-02-16T07:51:21;18.17;;;6.32;;
64615;SDS011;51027;42.162;24.754;2024-02-16T07:53:47;16.95;;;5.60;;
64615;SDS011;51027;42.162;24.754;2024-02-16T07:56:12;16.42;;;6.00;;
64615;SDS011;51027;42.162;24.754;2024-02-16T07:58:38;15.65;;;6.20;;
64615;SDS011;51027;42.162;24.754;2024-02-16T08:01:07;16.80;;;5.45;;
64615;SDS011;51027;42.162;24.754;2024-02-16T08:03:32;14.50;;;5.40;;
64615;SDS011;51027;42.162;24.754;2024-02-16T08:05:58;14.98;;;5.20;;
64615;SDS011;51027;42.162;24.754;2024-02-16T08:08:24;15.38;;;6.03;;
64615;SDS011;51027;42.162;24.754;2024-02-16T08:10:49;17.25;;;6.43;;
64615;SDS011;51027;42.162;24.754;2024-02-16T08:13:15;16.92;;;5.93;;
64615;SDS011;51027;42.162;24.754;2024-02-16T08:15:41;18.98;;;6.45;;
64615;SDS011;51027;42.162;24.754;2024-02-16T08:18:08;17.85;;;7.32;;
64615;SDS011;51027;42.162;24.754;2024-02-16T08:20:36;17.73;;;8.70;;
64615;SDS011;51027;42.162;24.754;2024-02-16T08:23:02;19.95;;;8.43;;
64615;SDS011;51027;42.162;24.754;2024-02-16T08:25:27;19.40;;;8.10;;
64615;SDS011;51027;42.162;24.754;2024-02-16T08:27:55;20.17;;;8.50;;
64615;SDS011;51027;42.162;24.754;2024-02-16T08:30:21;15.32;;;4.80;;
64615;SDS011;51027;42.162;24.754;2024-02-16T08:32:47;16.48;;;6.15;;
64615;SDS011;51027;42.162;24.754;2024-02-16T08:35:13;14.15;;;5.72;;
64615;SDS011;51027;42.162;24.754;2024-02-16T08:37:39;16.52;;;6.45;;
64615;SDS011;51027;42.162;24.754;2024-02-16T08:40:05;15.85;;;5.72;;
64615;SDS011;51027;42.162;24.754;2024-02-16T08:42:31;17.40;;;6.72;;
64615;SDS011;51027;42.162;24.754;2024-02-16T08:44:56;17.70;;;6.40;;
64615;SDS011;51027;42.162;24.754;2024-02-16T08:47:25;15.65;;;6.57;;
64615;SDS011;51027;42.162;24.754;2024-02-16T08:49:50;17.30;;;6.55;;
64615;SDS011;51027;42.162;24.754;2024-02-16T08:52:16;15.63;;;6.45;;
64615;SDS011;51027;42.162;24.754;2024-02-16T08:54:44;17.13;;;6.32;;
64615;SDS011;51027;42.162;24.754;2024-02-16T08:57:10;17.73;;;6.18;;
64615;SDS011;51027;42.162;24.754;2024-02-16T08:59:35;16.33;;;6.38;;
64615;SDS011;51027;42.162;24.754;2024-02-16T09:02:01;15.95;;;6.45;;
64615;SDS011;51027;42.162;24.754;2024-02-16T09:04:26;16.98;;;6.07;;
64615;SDS011;51027;42.162;24.754;2024-02-16T09:06:52;17.08;;;6.43;;
64615;SDS011;51027;42.162;24.754;2024-02-16T09:09:18;17.55;;;5.78;;
64615;SDS011;51027;42.162;24.754;2024-02-16T09:11:44;14.82;;;5.93;;
64615;SDS011;51027;42.162;24.754;2024-02-16T09:14:09;17.33;;;6.10;;
64615;SDS011;51027;42.162;24.754;2024-02-16T09:16:34;15.70;;;6.40;;
64615;SDS011;51027;42.162;24.754;2024-02-16T09:19:00;18.52;;;6.15;;
64615;SDS011;51027;42.162;24.754;2024-02-16T09:21:25;17.00;;;6.07;;
64615;SDS011;51027;42.162;24.754;2024-02-16T09:23:53;16.02;;;5.82;;
64615;SDS011;51027;42.162;24.754;2024-02-16T09:26:18;15.43;;;5.80;;
64615;SDS011;51027;42.162;24.754;2024-02-16T09:28:44;15.00;;;5.15;;
64615;SDS011;51027;42.162;24.754;2024-02-16T09:31:13;15.25;;;5.53;;
64615;SDS011;51027;42.162;24.754;2024-02-16T09:33:39;15.07;;;6.07;;
64615;SDS011;51027;42.162;24.754;2024-02-16T09:36:05;15.48;;;5.63;;
64615;SDS011;51027;42.162;24.754;2024-02-16T09:38:31;10.25;;;4.10;;
64615;SDS011;51027;42.162;24.754;2024-02-16T09:40:57;14.15;;;5.28;;
64615;SDS011;51027;42.162;24.754;2024-02-16T09:43:26;16.70;;;5.22;;
64615;SDS011;51027;42.162;24.754;2024-02-16T09:45:56;14.00;;;5.68;;
64615;SDS011;51027;42.162;24.754;2024-02-16T09:48:23;16.65;;;5.40;;
64615;SDS011;51027;42.162;24.754;2024-02-16T09:50:51;13.10;;;4.78;;
64615;SDS011;51027;42.162;24.754;2024-02-16T09:53:19;16.13;;;5.43;;
64615;SDS011;51027;42.162;24.754;2024-02-16T09:55:47;14.90;;;5.50;;
64615;SDS011;51027;42.162;24.754;2024-02-16T09:58:14;14.13;;;4.97;;
64615;SDS011;51027;42.162;24.754;2024-02-16T10:00:47;14.13;;;4.75;;
64615;SDS011;51027;42.162;24.754;2024-02-16T10:03:29;15.07;;;4.63;;
64615;SDS011;51027;42.162;24.754;2024-02-16T10:06:04;14.60;;;5.15;;
64615;SDS011;51027;42.162;24.754;2024-02-16T10:08:33;11.85;;;4.18;;
64615;SDS011;51027;42.162;24.754;2024-02-16T10:11:03;12.88;;;4.63;;
64615;SDS011;51027;42.162;24.754;2024-02-16T10:13:32;14.60;;;4.65;;
64615;SDS011;51027;42.162;24.754;2024-02-16T10:16:04;14.00;;;4.72;;
64615;SDS011;51027;42.162;24.754;2024-02-16T10:18:37;12.82;;;4.82;;
64615;SDS011;51027;42.162;24.754;2024-02-16T10:21:03;12.77;;;5.18;;
64615;SDS011;51027;42.162;24.754;2024-02-16T10:23:29;11.32;;;4.13;;
64615;SDS011;51027;42.162;24.754;2024-02-16T10:25:54;11.60;;;4.07;;
64615;SDS011;51027;42.162;24.754;2024-02-16T10:28:20;14.73;;;3.72;;
64615;SDS011;51027;42.162;24.754;2024-02-16T10:30:52;8.77;;;3.40;;
64615;SDS011;51027;42.162;24.754;2024-02-16T10:33:27;10.30;;;3.72;;
64615;SDS011;51027;42.162;24.754;2024-02-16T10:35:54;9.90;;;4.00;;
64615;SDS011;51027;42.162;24.754;2024-02-16T10:38:22;11.35;;;3.85;;
64615;SDS011;51027;42.162;24.754;2024-02-16T10:40:48;13.18;;;4.07;;
64615;SDS011;51027;42.162;24.754;2024-02-16T10:43:16;11.80;;;4.05;;
64615;SDS011;51027;42.162;24.754;2024-02-16T10:45:43;12.10;;;4.20;;
64615;SDS011;51027;42.162;24.754;2024-02-16T10:48:10;10.85;;;3.97;;
64615;SDS011;51027;42.162;24.754;2024-02-16T10:50:36;8.75;;;3.40;;
64615;SDS011;51027;42.162;24.754;2024-02-16T10:53:13;10.48;;;4.05;;
64615;SDS011;51027;42.162;24.754;2024-02-16T10:55:39;11.55;;;4.07;;
64615;SDS011;51027;42.162;24.754;2024-02-16T10:58:06;11.48;;;4.05;;
64615;SDS011;51027;42.162;24.754;2024-02-16T11:00:33;12.07;;;4.15;;
64615;SDS011;51027;42.162;24.754;2024-02-16T11:02:59;10.30;;;3.33;;
64615;SDS011;51027;42.162;24.754;2024-02-16T11:05:34;10.93;;;3.83;;
64615;SDS011;51027;42.162;24.754;2024-02-16T11:08:00;14.15;;;4.05;;
64615;SDS011;51027;42.162;24.754;2024-02-16T11:10:26;11.80;;;3.85;;
64615;SDS011;51027;42.162;24.754;2024-02-16T11:12:51;11.73;;;3.70;;
64615;SDS011;51027;42.162;24.754;2024-02-16T11:15:27;12.68;;;4.18;;
64615;SDS011;51027;42.162;24.754;2024-02-16T11:17:57;12.95;;;4.00;;
64615;SDS011;51027;42.162;24.754;2024-02-16T11:20:24;10.00;;;3.50;;
64615;SDS011;51027;42.162;24.754;2024-02-16T11:22:51;11.18;;;3.83;;
64615;SDS011;51027;42.162;24.754;2024-02-16T11:25:17;10.75;;;3.85;;
64615;SDS011;51027;42.162;24.754;2024-02-16T11:27:43;10.57;;;3.58;;
64615;SDS011;51027;42.162;24.754;2024-02-16T11:30:12;11.10;;;3.60;;
64615;SDS011;51027;42.162;24.754;2024-02-16T11:32:37;11.43;;;3.10;;
64615;SDS011;51027;42.162;24.754;2024-02-16T11:35:06;8.60;;;3.30;;
64615;SDS011;51027;42.162;24.754;2024-02-16T11:37:33;8.77;;;3.10;;
64615;SDS011;51027;42.162;24.754;2024-02-16T11:39:58;8.80;;;3.22;;
64615;SDS011;51027;42.162;24.754;2024-02-16T11:42:24;11.48;;;3.50;;
64615;SDS011;51027;42.162;24.754;2024-02-16T11:44:50;11.35;;;3.80;;
64615;SDS011;51027;42.162;24.754;2024-02-16T11:47:21;9.43;;;3.67;;
64615;SDS011;51027;42.162;24.754;2024-02-16T11:52:45;10.10;;;3.55;;
64615;SDS011;51027;42.162;24.754;2024-02-16T11:55:12;10.55;;;3.58;;
64615;SDS011;51027;42.162;24.754;2024-02-16T11:57:40;8.50;;;3.42;;
64615;SDS011;51027;42.162;24.754;2024-02-16T12:00:06;11.82;;;3.60;;
64615;SDS011;51027;42.162;24.754;2024-02-16T12:02:39;9.00;;;3.22;;
64615;SDS011;51027;42.162;24.754;2024-02-16T12:05:05;11.05;;;3.65;;
64615;SDS011;51027;42.162;24.754;2024-02-16T12:07:32;10.27;;;3.47;;
64615;SDS011;51027;42.162;24.754;2024-02-16T12:09:59;9.52;;;3.30;;
64615;SDS011;51027;42.162;24.754;2024-02-16T12:12:26;9.32;;;3.60;;
64615;SDS011;51027;42.162;24.754;2024-02-16T12:14:53;12.35;;;3.60;;
64615;SDS011;51027;42.162;24.754;2024-02-16T12:17:19;8.73;;;3.22;;
64615;SDS011;51027;42.162;24.754;2024-02-16T12:19:45;8.45;;;3.30;;
64615;SDS011;51027;42.162;24.754;2024-02-16T12:22:16;10.35;;;3.50;;
64615;SDS011;51027;42.162;24.754;2024-02-16T12:24:45;9.60;;;3.70;;
64615;SDS011;51027;42.162;24.754;2024-02-16T12:27:11;11.85;;;3.60;;
64615;SDS011;51027;42.162;24.754;2024-02-16T12:29:38;10.50;;;3.65;;
64615;SDS011;51027;42.162;24.754;2024-02-16T12:32:04;10.15;;;3.63;;
64615;SDS011;51027;42.162;24.754;2024-02-16T12:34:30;9.88;;;3.95;;
64615;SDS011;51027;42.162;24.754;2024-02-16T12:36:56;11.95;;;4.03;;
64615;SDS011;51027;42.162;24.754;2024-02-16T12:39:21;10.57;;;3.47;;
64615;SDS011;51027;42.162;24.754;2024-02-16T12:41:47;11.98;;;4.10;;
64615;SDS011;51027;42.162;24.754;2024-02-16T12:44:13;9.30;;;3.72;;
64615;SDS011;51027;42.162;24.754;2024-02-16T12:46:39;10.90;;;3.67;;
64615;SDS011;51027;42.162;24.754;2024-02-16T12:49:05;8.25;;;3.08;;
64615;SDS011;51027;42.162;24.754;2024-02-16T12:51:31;10.98;;;3.42;;
64615;SDS011;51027;42.162;24.754;2024-02-16T12:53:57;9.32;;;3.30;;
64615;SDS011;51027;42.162;24.754;2024-02-16T12:56:22;8.25;;;3.40;;
64615;SDS011;51027;42.162;24.754;2024-02-16T12:58:48;11.80;;;3.38;;
64615;SDS011;51027;42.162;24.754;2024-02-16T13:01:13;10.02;;;3.40;;
64615;SDS011;51027;42.162;24.754;2024-02-16T13:03:39;10.75;;;3.88;;
64615;SDS011;51027;42.162;24.754;2024-02-16T13:06:04;9.35;;;3.25;;
64615;SDS011;51027;42.162;24.754;2024-02-16T13:08:30;11.00;;;3.40;;
64615;SDS011;51027;42.162;24.754;2024-02-16T13:10:56;9.35;;;3.00;;
64615;SDS011;51027;42.162;24.754;2024-02-16T13:13:23;9.82;;;3.25;;
64615;SDS011;51027;42.162;24.754;2024-02-16T13:15:48;8.32;;;3.20;;
64615;SDS011;51027;42.162;24.754;2024-02-16T13:18:15;8.95;;;3.22;;
64615;SDS011;51027;42.162;24.754;2024-02-16T13:20:41;16.98;;;7.22;;
64615;SDS011;51027;42.162;24.754;2024-02-16T13:23:07;8.57;;;3.50;;
64615;SDS011;51027;42.162;24.754;2024-02-16T13:25:32;13.00;;;4.20;;
64615;SDS011;51027;42.162;24.754;2024-02-16T13:27:57;8.45;;;3.10;;
64615;SDS011;51027;42.162;24.754;2024-02-16T13:30:24;8.80;;;3.50;;
64615;SDS011;51027;42.162;24.754;2024-02-16T13:32:50;9.52;;;3.13;;
64615;SDS011;51027;42.162;24.754;2024-02-16T13:35:15;11.27;;;4.22;;
64615;SDS011;51027;42.162;24.754;2024-02-16T13:37:41;7.80;;;2.72;;
64615;SDS011;51027;42.162;24.754;2024-02-16T13:40:07;11.70;;;3.40;;
64615;SDS011;51027;42.162;24.754;2024-02-16T13:47:32;7.68;;;3.42;;
64615;SDS011;51027;42.162;24.754;2024-02-16T13:49:57;13.00;;;3.97;;
64615;SDS011;51027;42.162;24.754;2024-02-16T13:52:24;12.73;;;3.85;;
64615;SDS011;51027;42.162;24.754;2024-02-16T13:54:50;13.10;;;4.55;;
64615;SDS011;51027;42.162;24.754;2024-02-16T13:57:15;12.30;;;4.25;;
64615;SDS011;51027;42.162;24.754;2024-02-16T13:59:41;13.57;;;4.28;;
64615;SDS011;51027;42.162;24.754;2024-02-16T14:02:07;12.95;;;4.40;;
64615;SDS011;51027;42.162;24.754;2024-02-16T14:04:34;15.10;;;5.20;;
64615;SDS011;51027;42.162;24.754;2024-02-16T14:07:00;13.65;;;4.88;;
64615;SDS011;51027;42.162;24.754;2024-02-16T14:09:25;12.10;;;4.50;;
64615;SDS011;51027;42.162;24.754;2024-02-16T14:11:51;13.63;;;4.38;;
64615;SDS011;51027;42.162;24.754;2024-02-16T14:14:19;12.35;;;4.55;;
64615;SDS011;51027;42.162;24.754;2024-02-16T14:16:44;16.35;;;4.93;;
64615;SDS011;51027;42.162;24.754;2024-02-16T14:19:10;15.40;;;4.35;;
64615;SDS011;51027;42.162;24.754;2024-02-16T14:21:35;13.55;;;4.47;;
64615;SDS011;51027;42.162;24.754;2024-02-16T14:24:00;11.70;;;4.32;;
64615;SDS011;51027;42.162;24.754;2024-02-16T14:26:26;11.98;;;3.95;;
64615;SDS011;51027;42.162;24.754;2024-02-16T14:28:51;11.52;;;3.88;;
64615;SDS011;51027;42.162;24.754;2024-02-16T14:31:20;11.33;;;4.17;;
64615;SDS011;51027;42.162;24.754;2024-02-16T14:33:46;15.02;;;4.95;;
64615;SDS011;51027;42.162;24.754;2024-02-16T14:36:12;12.20;;;4.30;;
64615;SDS011;51027;42.162;24.754;2024-02-16T14:38:37;14.60;;;4.90;;
64615;SDS011;51027;42.162;24.754;2024-02-16T14:41:03;13.77;;;4.97;;
64615;SDS011;51027;42.162;24.754;2024-02-16T14:43:30;15.23;;;4.78;;
64615;SDS011;51027;42.162;24.754;2024-02-16T14:45:59;15.00;;;5.13;;
64615;SDS011;51027;42.162;24.754;2024-02-16T14:48:25;12.70;;;4.30;;
64615;SDS011;51027;42.162;24.754;2024-02-16T14:50:53;13.38;;;4.82;;
64615;SDS011;51027;42.162;24.754;2024-02-16T14:53:19;16.95;;;5.07;;
64615;SDS011;51027;42.162;24.754;2024-02-16T14:55:45;14.68;;;5.25;;
64615;SDS011;51027;42.162;24.754;2024-02-16T14:58:11;13.45;;;4.95;;
64615;SDS011;51027;42.162;24.754;2024-02-16T15:00:37;11.25;;;4.22;;
64615;SDS011;51027;42.162;24.754;2024-02-16T15:03:03;13.77;;;4.53;;
64615;SDS011;51027;42.162;24.754;2024-02-16T15:05:28;13.52;;;4.60;;
64615;SDS011;51027;42.162;24.754;2024-02-16T15:07:54;9.55;;;3.55;;
64615;SDS011;51027;42.162;24.754;2024-02-16T15:10:19;12.35;;;4.05;;
64615;SDS011;51027;42.162;24.754;2024-02-16T15:12:45;11.30;;;4.20;;
64615;SDS011;51027;42.162;24.754;2024-02-16T15:15:10;10.60;;;3.70;;
64615;SDS011;51027;42.162;24.754;2024-02-16T15:17:37;11.02;;;3.78;;
64615;SDS011;51027;42.162;24.754;2024-02-16T15:20:04;13.80;;;5.13;;
64615;SDS011;51027;42.162;24.754;2024-02-16T15:22:31;10.30;;;4.00;;
64615;SDS011;51027;42.162;24.754;2024-02-16T15:24:57;13.38;;;4.32;;
64615;SDS011;51027;42.162;24.754;2024-02-16T15:27:22;13.05;;;3.95;;
64615;SDS011;51027;42.162;24.754;2024-02-16T15:29:48;12.52;;;4.07;;
64615;SDS011;51027;42.162;24.754;2024-02-16T15:32:14;13.68;;;3.95;;
64615;SDS011;51027;42.162;24.754;2024-02-16T15:34:40;12.15;;;3.78;;
64615;SDS011;51027;42.162;24.754;2024-02-16T15:37:09;13.43;;;4.35;;
64615;SDS011;51027;42.162;24.754;2024-02-16T15:39:34;12.13;;;3.85;;
64615;SDS011;51027;42.162;24.754;2024-02-16T15:42:00;12.20;;;3.92;;
64615;SDS011;51027;42.162;24.754;2024-02-16T15:44:25;11.93;;;4.45;;
64615;SDS011;51027;42.162;24.754;2024-02-16T15:46:50;14.45;;;4.28;;
64615;SDS011;51027;42.162;24.754;2024-02-16T15:49:16;12.90;;;4.50;;
64615;SDS011;51027;42.162;24.754;2024-02-16T15:51:42;12.98;;;4.18;;
64615;SDS011;51027;42.162;24.754;2024-02-16T15:54:08;13.30;;;4.93;;
64615;SDS011;51027;42.162;24.754;2024-02-16T15:56:33;19.73;;;7.82;;
64615;SDS011;51027;42.162;24.754;2024-02-16T15:58:59;23.13;;;7.75;;
64615;SDS011;51027;42.162;24.754;2024-02-16T16:01:27;18.27;;;6.15;;
64615;SDS011;51027;42.162;24.754;2024-02-16T16:03:53;18.70;;;6.55;;
64615;SDS011;51027;42.162;24.754;2024-02-16T16:06:19;17.70;;;5.75;;
64615;SDS011;51027;42.162;24.754;2024-02-16T16:08:45;14.70;;;4.63;;
64615;SDS011;51027;42.162;24.754;2024-02-16T16:11:10;16.42;;;5.90;;
64615;SDS011;51027;42.162;24.754;2024-02-16T16:13:36;17.20;;;5.53;;
64615;SDS011;51027;42.162;24.754;2024-02-16T16:16:02;14.65;;;5.22;;
64615;SDS011;51027;42.162;24.754;2024-02-16T16:18:31;18.67;;;7.25;;
64615;SDS011;51027;42.162;24.754;2024-02-16T16:20:59;21.05;;;8.18;;
64615;SDS011;51027;42.162;24.754;2024-02-16T16:23:29;19.63;;;7.50;;
64615;SDS011;51027;42.162;24.754;2024-02-16T16:25:57;21.60;;;8.23;;
64615;SDS011;51027;42.162;24.754;2024-02-16T16:28:23;17.25;;;5.97;;
64615;SDS011;51027;42.162;24.754;2024-02-16T16:30:49;18.02;;;6.40;;
64615;SDS011;51027;42.162;24.754;2024-02-16T16:33:15;17.40;;;7.22;;
64615;SDS011;51027;42.162;24.754;2024-02-16T16:35:40;17.65;;;5.75;;
64615;SDS011;51027;42.162;24.754;2024-02-16T16:38:06;15.70;;;5.03;;
64615;SDS011;51027;42.162;24.754;2024-02-16T16:40:32;14.65;;;4.43;;
64615;SDS011;51027;42.162;24.754;2024-02-16T16:42:59;12.82;;;4.40;;
64615;SDS011;51027;42.162;24.754;2024-02-16T16:45:24;14.15;;;5.47;;
64615;SDS011;51027;42.162;24.754;2024-02-16T16:47:50;14.02;;;5.28;;
64615;SDS011;51027;42.162;24.754;2024-02-16T16:50:16;19.02;;;6.60;;
64615;SDS011;51027;42.162;24.754;2024-02-16T16:52:45;19.63;;;7.25;;
64615;SDS011;51027;42.162;24.754;2024-02-16T16:55:11;17.20;;;6.10;;
64615;SDS011;51027;42.162;24.754;2024-02-16T16:57:36;18.73;;;6.75;;
64615;SDS011;51027;42.162;24.754;2024-02-16T17:00:02;16.98;;;5.78;;
64615;SDS011;51027;42.162;24.754;2024-02-16T17:02:30;14.85;;;5.25;;
64615;SDS011;51027;42.162;24.754;2024-02-16T17:04:55;15.13;;;4.50;;
64615;SDS011;51027;42.162;24.754;2024-02-16T17:07:21;16.30;;;5.20;;
64615;SDS011;51027;42.162;24.754;2024-02-16T17:09:47;18.58;;;4.97;;
64615;SDS011;51027;42.162;24.754;2024-02-16T17:12:17;13.10;;;4.78;;
64615;SDS011;51027;42.162;24.754;2024-02-16T17:14:45;14.93;;;4.90;;
64615;SDS011;51027;42.162;24.754;2024-02-16T17:17:10;14.93;;;4.90;;
64615;SDS011;51027;42.162;24.754;2024-02-16T17:19:36;13.82;;;5.13;;
64615;SDS011;51027;42.162;24.754;2024-02-16T17:22:01;14.98;;;4.63;;
64615;SDS011;51027;42.162;24.754;2024-02-16T17:24:28;13.30;;;4.47;;
64615;SDS011;51027;42.162;24.754;2024-02-16T17:26:55;15.68;;;4.93;;
64615;SDS011;51027;42.162;24.754;2024-02-16T17:29:21;14.77;;;4.57;;
64615;SDS011;51027;42.162;24.754;2024-02-16T17:31:46;14.23;;;4.85;;
64615;SDS011;51027;42.162;24.754;2024-02-16T17:34:12;10.45;;;3.85;;
64615;SDS011;51027;42.162;24.754;2024-02-16T17:36:37;15.50;;;4.60;;
64615;SDS011;51027;42.162;24.754;2024-02-16T17:39:02;15.50;;;4.90;;
64615;SDS011;51027;42.162;24.754;2024-02-16T17:41:28;12.10;;;3.70;;
64615;SDS011;51027;42.162;24.754;2024-02-16T17:43:55;11.80;;;4.43;;
64615;SDS011;51027;42.162;24.754;2024-02-16T17:46:21;11.05;;;3.85;;
64615;SDS011;51027;42.162;24.754;2024-02-16T17:48:46;15.27;;;5.13;;
64615;SDS011;51027;42.162;24.754;2024-02-16T17:51:12;12.82;;;5.07;;
64615;SDS011;51027;42.162;24.754;2024-02-16T17:53:37;13.10;;;4.55;;
64615;SDS011;51027;42.162;24.754;2024-02-16T17:56:03;14.60;;;4.82;;
64615;SDS011;51027;42.162;24.754;2024-02-16T17:58:32;14.98;;;5.13;;
64615;SDS011;51027;42.162;24.754;2024-02-16T18:00:58;16.65;;;5.22;;
64615;SDS011;51027;42.162;24.754;2024-02-16T18:03:23;17.67;;;5.78;;
64615;SDS011;51027;42.162;24.754;2024-02-16T18:05:49;16.23;;;5.18;;
64615;SDS011;51027;42.162;24.754;2024-02-16T18:08:14;17.63;;;5.97;;
64615;SDS011;51027;42.162;24.754;2024-02-16T18:10:39;15.30;;;4.88;;
64615;SDS011;51027;42.162;24.754;2024-02-16T18:13:05;17.35;;;5.05;;
64615;SDS011;51027;42.162;24.754;2024-02-16T18:15:30;14.98;;;5.30;;
64615;SDS011;51027;42.162;24.754;2024-02-16T18:17:56;12.20;;;4.18;;
64615;SDS011;51027;42.162;24.754;2024-02-16T18:20:21;15.00;;;5.38;;
64615;SDS011;51027;42.162;24.754;2024-02-16T18:22:47;16.42;;;5.18;;
64615;SDS011;51027;42.162;24.754;2024-02-16T18:25:13;17.13;;;5.60;;
64615;SDS011;51027;42.162;24.754;2024-02-16T18:27:38;16.80;;;5.60;;
64615;SDS011;51027;42.162;24.754;2024-02-16T18:30:04;14.95;;;4.40;;
64615;SDS011;51027;42.162;24.754;2024-02-16T18:32:30;15.48;;;4.70;;
64615;SDS011;51027;42.162;24.754;2024-02-16T18:34:56;15.88;;;5.88;;
64615;SDS011;51027;42.162;24.754;2024-02-16T18:37:21;15.30;;;5.68;;
64615;SDS011;51027;42.162;24.754;2024-02-16T18:39:46;9.73;;;4.30;;
64615;SDS011;51027;42.162;24.754;2024-02-16T18:42:12;18.40;;;6.85;;
64615;SDS011;51027;42.162;24.754;2024-02-16T18:44:37;15.63;;;6.43;;
64615;SDS011;51027;42.162;24.754;2024-02-16T18:47:03;16.73;;;6.05;;
64615;SDS011;51027;42.162;24.754;2024-02-16T18:49:29;11.45;;;4.50;;
64615;SDS011;51027;42.162;24.754;2024-02-16T18:51:55;15.43;;;5.85;;
64615;SDS011;51027;42.162;24.754;2024-02-16T18:54:20;16.90;;;6.13;;
64615;SDS011;51027;42.162;24.754;2024-02-16T18:56:46;16.25;;;6.25;;
64615;SDS011;51027;42.162;24.754;2024-02-16T18:59:11;17.77;;;7.13;;